Time;durP1;ratioP1;P1;durP2;ratioP2;P2;SDS_P1;SDS_P2;PMS_P1;PMS_P2;Temp;Humidity;BMP_temperature;BMP_pressure;BME280_temperature;BME280_humidity;BME280_pressure;Samples;Min_cycle;Max_cycle;Signal;HPM_P1;HPM_P2
2022/09/16 00:00:15;;;;;;;33.60;31.50;;;;;;;17.76;55.59;101026.53;5011670;28;20038;-77
2022/09/16 00:02:41;;;;;;;32.72;30.73;;;;;;;17.77;55.42;101024.66;5020254;28;20075;-77
2022/09/16 00:05:07;;;;;;;33.92;31.98;;;;;;;17.76;55.40;101021.06;5039183;28;20033;-78
2022/09/16 00:07:33;;;;;;;33.08;31.17;;;;;;;17.73;55.41;101021.66;5021312;28;20142;-78
2022/09/16 00:09:58;;;;;;;34.35;32.53;;;;;;;17.73;55.65;101024.38;5030345;28;20506;-76
2022/09/16 00:12:24;;;;;;;34.33;32.17;;;;;;;17.71;55.55;101021.97;5014508;28;20037;-76
2022/09/16 00:14:53;;;;;;;35.20;33.42;;;;;;;17.71;55.35;101021.13;5014405;28;20121;-78
2022/09/16 00:17:19;;;;;;;33.35;31.40;;;;;;;17.70;55.56;101008.56;5026023;28;20041;-76
2022/09/16 00:19:44;;;;;;;33.53;31.42;;;;;;;17.69;55.60;101010.50;5031595;28;20373;-76
2022/09/16 00:22:10;;;;;;;34.78;32.63;;;;;;;17.68;55.40;101005.28;5024036;28;20034;-75
2022/09/16 00:24:35;;;;;;;31.70;30.10;;;;;;;17.67;55.22;101007.22;4994095;28;20041;-76
2022/09/16 00:27:00;;;;;;;33.35;31.40;;;;;;;17.66;55.53;101005.56;5017794;28;20384;-75
2022/09/16 00:29:26;;;;;;;33.83;31.95;;;;;;;17.65;55.43;101005.88;5017621;28;20053;-76
2022/09/16 00:31:51;;;;;;;34.30;32.28;;;;;;;17.64;55.16;101002.31;5030109;28;20079;-75
2022/09/16 00:34:17;;;;;;;31.05;29.42;;;;;;;17.63;55.42;101005.34;5006226;28;20029;-77
2022/09/16 00:36:42;;;;;;;32.67;30.98;;;;;;;17.62;55.21;100998.25;5011508;28;20032;-76
2022/09/16 00:39:07;;;;;;;33.70;31.23;;;;;;;17.61;55.67;100993.88;5010427;28;20036;-75
2022/09/16 00:41:33;;;;;;;32.63;30.92;;;;;;;17.60;55.32;100993.06;4977651;28;20138;-76
2022/09/16 00:44:04;;;;;;;31.52;29.83;;;;;;;17.59;55.10;100998.78;5010952;28;20041;-75
2022/09/16 00:46:43;;;;;;;33.10;31.30;;;;;;;17.58;55.52;100989.78;5024069;28;20041;-74
2022/09/16 00:49:17;;;;;;;32.67;30.92;;;;;;;17.57;55.18;100993.63;5016836;28;20072;-75
2022/09/16 00:51:46;;;;;;;32.67;30.85;;;;;;;17.55;55.19;100992.28;5030947;28;20037;-75
2022/09/16 00:54:13;;;;;;;31.77;30.08;;;;;;;17.54;55.24;100988.75;5029023;28;20032;-76
2022/09/16 00:56:43;;;;;;;32.63;30.80;;;;;;;17.53;55.15;100995.28;5049035;28;20047;-77
2022/09/16 00:59:23;;;;;;;33.90;31.90;;;;;;;17.51;55.31;100992.84;5011306;28;20033;-75
2022/09/16 01:01:50;;;;;;;33.25;31.65;;;;;;;17.51;55.11;101000.22;5025332;28;20116;-75
2022/09/16 01:04:30;;;;;;;32.92;31.23;;;;;;;17.50;55.33;100990.41;5038519;28;20394;-75
2022/09/16 01:06:56;;;;;;;31.95;30.35;;;;;;;17.48;55.16;100985.22;5034848;28;20064;-76
2022/09/16 01:09:23;;;;;;;32.05;30.15;;;;;;;17.47;55.43;100993.69;5024894;28;20497;-76
2022/09/16 01:11:48;;;;;;;32.33;30.73;;;;;;;17.46;55.38;100998.34;4999801;28;20116;-75
2022/09/16 01:17:27;;;;;;;31.75;30.15;;;;;;;17.44;55.09;100988.81;5033183;28;20133;-76
2022/09/16 01:20:11;;;;;;;32.65;30.95;;;;;;;17.43;55.32;100995.34;5034219;28;20431;-77
2022/09/16 01:23:01;;;;;;;33.58;31.75;;;;;;;17.42;55.37;100996.47;5032674;28;20033;-74
2022/09/16 01:25:54;;;;;;;33.60;31.25;;;;;;;17.40;55.54;100993.19;5029879;28;20025;-76
2022/09/16 01:28:40;;;;;;;31.95;29.98;;;;;;;17.39;55.21;100999.75;5024937;28;20121;-77
2022/09/16 01:31:11;;;;;;;32.00;30.30;;;;;;;17.36;55.12;100990.22;5015262;28;20493;-76
2022/09/16 01:33:58;;;;;;;32.13;30.00;;;;;;;17.36;55.27;100995.69;5022813;28;20090;-76
2022/09/16 01:36:50;;;;;;;31.55;29.55;;;;;;;17.34;55.20;101010.69;5014197;28;20030;-76
2022/09/16 01:39:18;;;;;;;32.95;31.33;;;;;;;17.33;55.16;101006.34;5033719;28;20064;-76
2022/09/16 01:42:09;;;;;;;31.70;30.00;;;;;;;17.32;55.07;101008.25;5031986;28;20060;-77
2022/09/16 01:44:51;;;;;;;33.40;31.48;;;;;;;17.30;55.12;101008.53;5032306;28;20177;-76
2022/09/16 01:47:43;;;;;;;31.70;29.95;;;;;;;17.30;55.17;101002.25;5014683;28;20030;-76
2022/09/16 01:50:25;;;;;;;31.13;29.40;;;;;;;17.28;55.05;100993.53;5032050;28;20030;-76
2022/09/16 01:53:08;;;;;;;30.38;28.73;;;;;;;17.26;55.33;100991.09;5019687;28;20155;-76
2022/09/16 01:55:47;;;;;;;32.10;30.40;;;;;;;17.26;54.99;100991.09;5017286;28;20030;-76
2022/09/16 01:58:31;;;;;;;33.05;31.02;;;;;;;17.25;54.88;100985.91;5018225;28;20538;-77
2022/09/16 02:01:04;;;;;;;31.88;30.15;;;;;;;17.23;55.06;100996.28;5046268;28;20450;-76
2022/09/16 02:03:35;;;;;;;33.85;32.13;;;;;;;17.23;55.09;100990.81;5045421;28;20045;-76
2022/09/16 02:06:16;;;;;;;32.67;30.73;;;;;;;17.22;54.97;101002.84;5032681;28;20048;-77
2022/09/16 02:08:48;;;;;;;31.70;29.63;;;;;;;17.21;55.14;101003.94;5036928;28;20112;-76
2022/09/16 02:11:17;;;;;;;31.60;29.88;;;;;;;17.20;55.14;101007.75;5013911;28;20030;-77
2022/09/16 02:13:54;;;;;;;31.60;29.52;;;;;;;17.19;55.18;101003.41;5021870;28;20034;-77
2022/09/16 02:16:33;;;;;;;32.30;30.58;;;;;;;17.18;54.78;101010.75;5032674;28;20045;-76
2022/09/16 02:19:05;;;;;;;31.38;29.77;;;;;;;17.17;55.14;101009.16;5027884;28;20084;-76
2022/09/16 02:21:33;;;;;;;32.00;30.30;;;;;;;17.16;55.15;100998.50;5013388;28;20026;-77
2022/09/16 02:24:04;;;;;;;30.63;29.02;;;;;;;17.16;54.95;101003.94;5013488;28;20117;-75
2022/09/16 02:26:35;;;;;;;31.50;29.95;;;;;;;17.15;55.04;101000.41;5016169;28;20025;-75
2022/09/16 02:29:05;;;;;;;31.58;29.85;;;;;;;17.14;54.94;100995.25;5034205;28;20053;-76
2022/09/16 02:31:36;;;;;;;32.75;30.98;;;;;;;17.13;54.81;100997.16;5014243;28;20037;-75
2022/09/16 02:34:09;;;;;;;30.80;29.20;;;;;;;17.12;55.14;100995.53;5029691;28;20038;-75
2022/09/16 02:36:39;;;;;;;30.83;29.23;;;;;;;17.12;55.11;101000.16;5032630;28;20536;-75
2022/09/16 02:39:10;;;;;;;30.73;29.23;;;;;;;17.11;54.83;101004.81;5033333;28;20441;-75
2022/09/16 02:41:40;;;;;;;32.17;30.48;;;;;;;17.11;55.08;100998.53;5012951;28;20042;-76
2022/09/16 02:44:07;;;;;;;30.65;28.70;;;;;;;17.09;54.74;100999.63;5013757;28;20034;-76
2022/09/16 02:46:51;;;;;;;33.65;31.75;;;;;;;17.08;55.40;100998.00;5032312;28;20420;-76
2022/09/16 02:49:49;;;;;;;30.55;28.95;;;;;;;17.06;55.13;101008.38;5018321;28;20429;-75
2022/09/16 02:52:33;;;;;;;31.02;29.35;;;;;;;17.06;54.99;101002.13;5011194;28;20133;-76
2022/09/16 02:55:19;;;;;;;30.50;28.90;;;;;;;17.05;54.80;101001.28;5013171;28;20026;-76
2022/09/16 02:57:45;;;;;;;33.10;31.25;;;;;;;17.04;55.10;100999.66;5028394;28;20017;-76
2022/09/16 03:00:11;;;;;;;30.75;29.13;;;;;;;17.03;54.95;100992.56;5038473;28;20029;-75
2022/09/16 03:02:36;;;;;;;32.28;30.23;;;;;;;17.03;55.05;100994.47;5009272;28;20057;-76
2022/09/16 03:05:02;;;;;;;31.38;29.70;;;;;;;17.02;55.10;101009.22;5012254;28;20382;-76
2022/09/16 03:07:28;;;;;;;30.90;29.30;;;;;;;17.01;54.71;100996.66;5000859;28;20527;-78
2022/09/16 03:09:53;;;;;;;31.73;30.13;;;;;;;17.00;54.87;100997.75;5016442;28;20500;-76
2022/09/16 03:12:35;;;;;;;30.23;28.73;;;;;;;17.00;55.09;100995.03;5031475;28;20033;-76
2022/09/16 03:15:35;;;;;;;31.70;30.00;;;;;;;17.00;54.96;100998.56;5030380;28;20392;-76
2022/09/16 03:18:23;;;;;;;31.73;29.85;;;;;;;16.97;55.28;100990.13;5034359;28;20030;-76
2022/09/16 03:21:00;;;;;;;31.30;29.70;;;;;;;16.97;55.09;101001.84;5020151;28;20029;-75
2022/09/16 03:23:47;;;;;;;31.50;29.90;;;;;;;16.95;54.69;100995.88;5030180;28;20409;-76
2022/09/16 03:26:44;;;;;;;32.05;30.17;;;;;;;16.94;55.15;100991.50;5030833;28;20041;-77
2022/09/16 03:29:30;;;;;;;29.60;27.95;;;;;;;16.93;55.11;100989.06;5026329;28;20053;-75
2022/09/16 03:32:11;;;;;;;29.50;27.80;;;;;;;16.91;54.98;101000.25;5028138;28;20128;-75
2022/09/16 03:34:41;;;;;;;32.05;30.20;;;;;;;16.92;55.03;100995.63;5030379;28;20025;-76
2022/09/16 03:37:11;;;;;;;30.42;28.83;;;;;;;16.90;55.13;100997.81;5032342;28;20037;-76
2022/09/16 03:39:37;;;;;;;30.77;29.17;;;;;;;16.89;54.98;100997.00;5025904;28;20406;-75
2022/09/16 03:42:10;;;;;;;31.52;29.90;;;;;;;16.87;54.83;100991.81;5011631;28;20044;-77
2022/09/16 03:44:39;;;;;;;32.20;30.13;;;;;;;16.87;55.07;100997.25;5029421;28;20087;-77
2022/09/16 03:47:09;;;;;;;31.63;30.02;;;;;;;16.87;55.18;100993.72;5034479;28;20047;-75
2022/09/16 03:49:35;;;;;;;30.55;29.00;;;;;;;16.86;55.02;101003.81;5028403;28;20045;-75
2022/09/16 03:52:00;;;;;;;31.15;29.38;;;;;;;16.85;55.01;100993.97;5027464;28;20037;-75
2022/09/16 03:54:26;;;;;;;30.90;29.10;;;;;;;16.85;55.32;100999.44;5029777;28;20033;-76
2022/09/16 03:56:52;;;;;;;30.23;28.58;;;;;;;16.85;55.04;100993.16;5019454;28;20660;-76
2022/09/16 03:59:17;;;;;;;32.30;30.42;;;;;;;16.83;55.30;100989.91;5014025;28;20040;-75
2022/09/16 04:01:44;;;;;;;31.33;29.65;;;;;;;16.83;54.95;100995.34;5024941;28;20117;-78
2022/09/16 04:04:11;;;;;;;30.83;29.25;;;;;;;16.82;55.08;100997.28;5011065;28;20115;-77
2022/09/16 04:06:36;;;;;;;29.92;28.42;;;;;;;16.81;55.15;100998.38;5021059;28;20144;-77
2022/09/16 04:09:03;;;;;;;30.13;28.67;;;;;;;16.81;55.22;100992.13;5018230;28;20053;-76
2022/09/16 04:11:30;;;;;;;30.95;29.23;;;;;;;16.79;55.03;100992.38;5035583;28;20028;-81
2022/09/16 04:13:55;;;;;;;29.63;28.13;;;;;;;16.78;55.03;100990.75;5026793;28;20432;-76
2022/09/16 04:16:21;;;;;;;31.58;29.70;;;;;;;16.79;54.94;100992.38;5024303;28;20041;-77
2022/09/16 04:18:47;;;;;;;31.40;29.02;;;;;;;16.78;55.37;100989.91;5013136;28;20038;-77
2022/09/16 04:21:13;;;;;;;30.98;29.42;;;;;;;16.78;55.16;100998.94;5031237;28;20152;-77
2022/09/16 04:23:39;;;;;;;30.60;28.80;;;;;;;16.77;55.22;101001.91;5013091;28;20029;-77
2022/09/16 04:26:04;;;;;;;31.30;29.23;;;;;;;16.76;55.25;101005.75;5032494;28;20044;-76
2022/09/16 04:28:31;;;;;;;31.48;29.65;;;;;;;16.76;55.01;101006.56;5013161;28;20052;-78
2022/09/16 04:31:04;;;;;;;30.92;29.23;;;;;;;16.74;55.20;100997.00;5029296;28;20038;-75
2022/09/16 04:33:31;;;;;;;30.42;28.77;;;;;;;16.74;55.20;100999.75;5029077;28;20083;-76
2022/09/16 04:36:13;;;;;;;31.00;29.40;;;;;;;16.74;55.20;101003.28;5031975;28;20086;-75
2022/09/16 04:38:43;;;;;;;32.60;30.20;;;;;;;16.72;55.48;101002.72;5036158;28;20041;-76
2022/09/16 04:41:11;;;;;;;31.08;29.20;;;;;;;16.71;55.37;101006.56;5030752;28;20473;-75
2022/09/16 04:43:38;;;;;;;29.83;28.33;;;;;;;16.70;55.53;101002.19;5035769;28;20041;-75
2022/09/16 04:46:04;;;;;;;30.83;29.13;;;;;;;16.70;55.42;101002.19;5044350;28;20396;-76
2022/09/16 04:48:30;;;;;;;29.90;27.88;;;;;;;16.69;55.38;101003.28;5031932;28;20105;-77
2022/09/16 04:51:05;;;;;;;31.48;29.85;;;;;;;16.70;55.35;101009.56;5047953;28;20041;-77
2022/09/16 04:53:30;;;;;;;29.58;28.08;;;;;;;16.68;55.52;101009.81;5035929;28;20064;-76
2022/09/16 04:56:08;;;;;;;30.40;28.67;;;;;;;16.67;55.38;101003.56;5010529;28;20033;-75
2022/09/16 04:58:34;;;;;;;29.88;28.27;;;;;;;16.66;55.51;100995.69;5031740;28;20439;-75
2022/09/16 05:01:07;;;;;;;29.80;28.35;;;;;;;16.66;55.46;100993.75;5023511;28;20123;-75
2022/09/16 05:03:32;;;;;;;28.23;26.73;;;;;;;16.64;55.36;101000.59;5014664;28;20038;-76
2022/09/16 05:06:06;;;;;;;30.27;28.52;;;;;;;16.63;55.63;101005.22;4997541;28;20030;-75
2022/09/16 05:08:34;;;;;;;29.30;27.80;;;;;;;16.64;55.56;101014.22;5039698;28;20041;-75
2022/09/16 05:11:14;;;;;;;28.83;27.40;;;;;;;16.63;55.84;101018.03;5013428;28;20064;-76
2022/09/16 05:13:40;;;;;;;31.70;29.70;;;;;;;16.62;55.77;101028.13;5015147;28;20292;-77
2022/09/16 05:16:08;;;;;;;30.30;28.58;;;;;;;16.62;55.77;101032.75;5029206;28;20041;-75
2022/09/16 05:18:35;;;;;;;28.40;26.77;;;;;;;16.61;55.58;101025.69;5014858;28;20087;-76
2022/09/16 05:21:02;;;;;;;31.77;29.80;;;;;;;16.60;56.07;101026.75;5025607;28;20041;-75
2022/09/16 05:23:27;;;;;;;30.27;28.25;;;;;;;16.59;55.69;101015.03;5033285;28;20029;-75
2022/09/16 05:25:53;;;;;;;29.80;28.17;;;;;;;16.58;55.80;101013.41;5019811;28;20096;-76
2022/09/16 05:28:20;;;;;;;30.98;28.95;;;;;;;16.57;55.89;101006.31;5004989;28;20043;-77
2022/09/16 05:30:45;;;;;;;29.77;27.92;;;;;;;16.57;55.64;101006.31;5033199;28;20055;-77
2022/09/16 05:33:10;;;;;;;30.38;28.58;;;;;;;16.56;55.97;101001.97;5015061;28;20045;-75
2022/09/16 05:35:36;;;;;;;31.67;29.98;;;;;;;16.56;56.06;101007.44;5029186;28;20037;-75
2022/09/16 05:38:01;;;;;;;28.20;26.80;;;;;;;16.56;55.90;100998.44;5014644;28;20640;-74
2022/09/16 05:40:27;;;;;;;29.45;27.95;;;;;;;16.56;56.01;100998.44;5013504;28;20097;-75
2022/09/16 05:42:53;;;;;;;30.15;28.45;;;;;;;16.53;55.92;100991.63;5028562;28;20039;-75
2022/09/16 05:45:18;;;;;;;30.88;29.27;;;;;;;16.52;56.26;100997.34;5039204;28;20042;-76
2022/09/16 05:47:48;;;;;;;30.10;28.40;;;;;;;16.53;56.13;100998.97;5018372;28;20042;-78
2022/09/16 05:50:13;;;;;;;29.55;28.05;;;;;;;16.52;56.35;101009.06;5045802;28;20473;-76
2022/09/16 05:52:39;;;;;;;29.75;28.05;;;;;;;16.51;56.04;101007.44;5033085;28;20060;-75
2022/09/16 05:55:04;;;;;;;29.80;28.38;;;;;;;16.52;56.06;101017.25;5033089;28;20103;-75
2022/09/16 05:57:30;;;;;;;30.90;29.38;;;;;;;16.51;56.18;101022.97;5031975;28;20471;-75
2022/09/16 05:59:55;;;;;;;31.50;29.90;;;;;;;16.50;56.30;101018.59;5021301;28;20030;-75
2022/09/16 06:02:20;;;;;;;30.42;28.60;;;;;;;16.49;56.13;101023.25;5014095;28;20371;-74
2022/09/16 06:04:46;;;;;;;30.05;28.60;;;;;;;16.48;56.36;101024.34;5013776;28;20096;-77
2022/09/16 06:07:12;;;;;;;30.40;28.90;;;;;;;16.48;56.20;101013.44;5017726;28;20061;-75
2022/09/16 06:09:37;;;;;;;30.48;28.55;;;;;;;16.48;56.14;101013.44;5014190;28;20045;-75
2022/09/16 06:12:03;;;;;;;31.85;30.13;;;;;;;16.47;56.37;101009.06;5015418;28;20383;-77
2022/09/16 06:14:28;;;;;;;30.13;28.25;;;;;;;16.47;56.17;101005.53;5026294;28;20030;-76
2022/09/16 06:16:54;;;;;;;31.13;29.30;;;;;;;16.46;56.16;101006.63;5023515;28;20074;-77
2022/09/16 06:19:19;;;;;;;30.30;28.63;;;;;;;16.46;56.26;101012.09;5030512;28;20033;-76
2022/09/16 06:21:45;;;;;;;32.08;30.45;;;;;;;16.44;56.48;101021.34;5035977;28;20398;-76
2022/09/16 06:24:12;;;;;;;29.10;27.50;;;;;;;16.44;56.47;101013.16;5011909;28;20034;-76
2022/09/16 06:26:40;;;;;;;29.85;28.25;;;;;;;16.43;56.54;101010.72;5027401;28;20073;-77
2022/09/16 06:29:06;;;;;;;29.63;28.03;;;;;;;16.44;56.26;101021.34;5053196;28;20041;-76
2022/09/16 06:31:33;;;;;;;28.08;26.58;;;;;;;16.44;56.61;101023.25;5035948;28;20379;-75
2022/09/16 06:33:58;;;;;;;30.42;28.88;;;;;;;16.43;56.35;101027.09;5031357;28;20025;-76
2022/09/16 06:36:28;;;;;;;29.55;27.63;;;;;;;16.42;56.43;101025.44;5032677;28;20029;-77
2022/09/16 06:38:54;;;;;;;30.73;29.13;;;;;;;16.42;56.47;101025.44;5054241;28;20030;-75
2022/09/16 06:41:20;;;;;;;28.65;27.15;;;;;;;16.41;56.67;101019.16;5018641;28;20079;-75
2022/09/16 06:43:47;;;;;;;28.58;26.85;;;;;;;16.41;56.50;101024.63;5036620;28;20084;-75
2022/09/16 06:46:17;;;;;;;28.75;27.25;;;;;;;16.41;56.59;101026.53;5020670;28;20531;-75
2022/09/16 06:48:45;;;;;;;30.10;28.60;;;;;;;16.41;56.54;101032.81;5029598;28;20034;-76
2022/09/16 06:51:17;;;;;;;28.23;26.83;;;;;;;16.40;56.36;101027.63;5025854;28;20041;-76
2022/09/16 06:53:43;;;;;;;29.27;27.83;;;;;;;16.40;56.29;101030.34;5031758;28;20036;-76
2022/09/16 06:56:11;;;;;;;30.08;28.48;;;;;;;16.38;56.82;101022.44;5034000;28;20033;-77
2022/09/16 06:58:38;;;;;;;29.35;27.70;;;;;;;16.40;56.80;101033.06;5034450;28;20037;-75
2022/09/16 07:01:05;;;;;;;29.90;28.23;;;;;;;16.39;56.72;101037.72;5018542;28;20030;-74
2022/09/16 07:03:30;;;;;;;30.58;28.45;;;;;;;16.38;56.96;101036.09;5014620;28;20430;-75
2022/09/16 07:06:01;;;;;;;28.98;27.27;;;;;;;16.39;56.70;101040.44;5026653;28;20041;-75
2022/09/16 07:08:34;;;;;;;31.10;29.50;;;;;;;16.36;56.83;101035.53;5031300;28;20036;-76
2022/09/16 07:11:02;;;;;;;30.65;29.05;;;;;;;16.38;56.61;101046.19;5029455;28;20045;-76
2022/09/16 07:13:28;;;;;;;29.73;28.00;;;;;;;16.38;56.66;101038.00;5022951;28;20030;-75
2022/09/16 07:15:54;;;;;;;30.63;29.05;;;;;;;16.37;56.73;101037.16;5012223;28;20519;-77
2022/09/16 07:18:19;;;;;;;30.10;28.55;;;;;;;16.37;56.95;101037.16;5011347;28;20034;-75
2022/09/16 07:20:45;;;;;;;29.13;27.63;;;;;;;16.38;57.03;101038.81;5026897;28;20044;-76
2022/09/16 07:23:10;;;;;;;30.50;28.80;;;;;;;16.36;56.82;101037.44;5012265;28;20223;-75
2022/09/16 07:25:36;;;;;;;30.08;27.88;;;;;;;16.37;56.61;101048.06;5011313;28;20172;-75
2022/09/16 07:28:02;;;;;;;31.27;29.48;;;;;;;16.37;56.85;101048.06;5029092;28;20119;-76
2022/09/16 07:30:29;;;;;;;30.92;29.42;;;;;;;16.37;56.71;101042.59;5016229;28;20388;-74
2022/09/16 07:32:54;;;;;;;28.95;27.42;;;;;;;16.36;56.89;101043.72;5020419;28;20425;-74
2022/09/16 07:35:20;;;;;;;30.63;28.83;;;;;;;16.36;56.82;101041.00;5035369;28;20476;-73
2022/09/16 07:37:45;;;;;;;28.65;27.25;;;;;;;16.37;57.07;101036.34;5027687;28;20025;-73
2022/09/16 07:40:12;;;;;;;29.98;28.48;;;;;;;16.36;57.00;101038.25;5019837;28;20084;-74
2022/09/16 07:42:37;;;;;;;29.45;27.75;;;;;;;16.37;56.88;101045.34;5034629;28;20029;-75
2022/09/16 07:45:03;;;;;;;30.98;29.27;;;;;;;16.36;57.13;101046.44;5030047;28;20041;-74
2022/09/16 07:47:29;;;;;;;29.23;27.55;;;;;;;16.37;57.29;101052.72;5031966;28;20037;-74
2022/09/16 07:49:55;;;;;;;29.48;28.05;;;;;;;16.36;57.26;101042.91;5030885;28;20033;-75
2022/09/16 07:52:24;;;;;;;30.40;28.70;;;;;;;16.36;57.21;101051.91;5031766;28;20033;-75
2022/09/16 07:54:50;;;;;;;29.42;27.92;;;;;;;16.38;57.16;101054.34;5011000;28;20030;-77
2022/09/16 07:57:16;;;;;;;28.45;27.05;;;;;;;16.38;57.13;101059.81;5028179;28;20044;-73
2022/09/16 07:59:41;;;;;;;28.88;27.23;;;;;;;16.39;57.41;101070.44;5038640;28;20464;-75
2022/09/16 08:02:08;;;;;;;30.95;28.90;;;;;;;16.38;57.61;101060.63;5031225;28;20075;-74
2022/09/16 08:04:33;;;;;;;28.83;27.15;;;;;;;16.39;58.24;101062.25;5037546;28;20040;-76
2022/09/16 08:06:59;;;;;;;30.25;28.55;;;;;;;16.41;58.52;101065.53;5046151;28;20366;-75
2022/09/16 08:09:24;;;;;;;28.55;27.05;;;;;;;16.43;59.12;101067.97;4994884;28;20030;-72
2022/09/16 08:11:49;;;;;;;29.10;27.30;;;;;;;16.44;58.79;101064.16;5012034;28;20105;-79
2022/09/16 08:14:15;;;;;;;29.75;27.83;;;;;;;16.46;59.29;101069.34;5026868;28;20045;-79
2022/09/16 08:16:40;;;;;;;27.63;26.33;;;;;;;16.48;59.74;101067.13;5014356;28;20068;-78
2022/09/16 08:19:05;;;;;;;28.85;27.20;;;;;;;16.48;59.90;101070.72;5029538;28;20033;-79
2022/09/16 08:21:31;;;;;;;27.63;26.23;;;;;;;16.50;59.78;101073.94;5029620;28;20384;-80
2022/09/16 08:23:57;;;;;;;29.00;27.55;;;;;;;16.50;60.44;101064.97;5030678;28;20064;-78
2022/09/16 08:26:23;;;;;;;28.27;26.88;;;;;;;16.52;59.99;101079.16;5028327;28;20093;-77
2022/09/16 08:28:49;;;;;;;30.90;28.52;;;;;;;16.52;60.20;101074.50;5019185;28;20140;-78
2022/09/16 08:31:16;;;;;;;30.23;28.38;;;;;;;16.54;60.33;101076.97;5014424;28;20109;-75
2022/09/16 08:33:42;;;;;;;29.35;27.73;;;;;;;16.55;60.04;101076.66;5017909;28;20037;-75
2022/09/16 08:36:13;;;;;;;30.65;28.95;;;;;;;16.57;60.61;101076.41;5041202;28;20087;-72
2022/09/16 08:38:39;;;;;;;28.08;26.58;;;;;;;16.57;60.39;101081.88;5020817;28;20121;-71
2022/09/16 08:41:38;;;;;;;30.70;28.80;;;;;;;16.60;60.77;101097.66;5021856;28;20121;-76
2022/09/16 08:44:22;;;;;;;29.98;27.95;;;;;;;16.59;60.63;101085.94;5025724;28;20108;-79
2022/09/16 08:47:44;;;;;;;29.00;27.38;;;;;;;16.59;61.17;101080.50;5030121;28;20036;-78
2022/09/16 08:50:20;;;;;;;28.33;26.90;;;;;;;16.60;61.00;101092.22;5012271;28;20026;-78
2022/09/16 08:52:46;;;;;;;28.15;26.75;;;;;;;16.61;60.71;101088.41;5032874;28;20033;-78
2022/09/16 08:55:17;;;;;;;30.30;28.00;;;;;;;16.61;60.70;101093.88;5031195;28;20037;-78
2022/09/16 08:57:59;;;;;;;30.00;28.23;;;;;;;16.62;60.95;101090.03;5037392;28;20026;-78
2022/09/16 09:00:24;;;;;;;29.65;28.15;;;;;;;16.62;60.43;101087.31;5048582;28;20029;-74
2022/09/16 09:03:08;;;;;;;28.55;27.15;;;;;;;16.63;60.60;101086.22;5032703;28;20037;-72
2022/09/16 09:05:34;;;;;;;29.88;28.02;;;;;;;16.64;60.62;101088.66;5023781;28;20426;-72
2022/09/16 09:08:12;;;;;;;27.70;26.10;;;;;;;16.64;60.65;101085.94;5018281;28;20034;-76
2022/09/16 09:10:48;;;;;;;29.77;28.13;;;;;;;16.66;60.83;101091.94;5011441;28;20029;-76
2022/09/16 09:13:43;;;;;;;32.42;30.20;;;;;;;16.67;60.42;101090.84;5015985;28;20441;-73
2022/09/16 09:16:24;;;;;;;29.23;27.65;;;;;;;16.68;60.59;101088.94;5013572;28;20034;-77
2022/09/16 09:19:05;;;;;;;29.40;28.00;;;;;;;16.69;60.65;101090.59;5033981;28;20029;-77
2022/09/16 09:21:43;;;;;;;27.65;26.35;;;;;;;16.71;60.71;101087.59;5031914;28;20060;-76
2022/09/16 09:24:38;;;;;;;29.65;28.05;;;;;;;16.72;61.16;101090.03;5030163;28;20454;-77
2022/09/16 09:27:13;;;;;;;29.52;27.92;;;;;;;16.76;60.72;101085.66;5032160;28;20028;-76
2022/09/16 09:30:22;;;;;;;28.67;27.27;;;;;;;16.79;60.91;101082.41;5039293;28;20097;-76
2022/09/16 09:32:56;;;;;;;;;;;;;;;16.81;61.38;101084.88;5014660;28;20045;-77
2022/09/16 09:35:40;;;;;;;28.25;26.75;;;;;;;16.82;61.02;101087.31;5032049;28;20165;-76
2022/09/16 09:38:24;;;;;;;29.55;27.92;;;;;;;16.83;60.99;101083.50;5034193;28;20042;-77
2022/09/16 09:40:55;;;;;;;30.38;28.42;;;;;;;16.86;60.66;101079.41;5023227;28;20488;-77
2022/09/16 09:43:32;;;;;;;30.27;28.77;;;;;;;16.87;60.85;101075.56;5013504;28;20465;-76
2022/09/16 09:46:23;;;;;;;30.95;29.35;;;;;;;16.90;61.01;101079.66;5025119;28;20466;-76
2022/09/16 09:49:14;;;;;;;30.80;28.65;;;;;;;16.91;61.23;101081.28;5039383;28;20082;-76
2022/09/16 09:52:15;;;;;;;29.40;27.88;;;;;;;16.92;61.87;101080.19;5041156;28;20474;-78
2022/09/16 09:54:44;;;;;;;29.58;28.17;;;;;;;16.92;61.56;101091.13;5031902;28;20098;-78
2022/09/16 09:57:36;;;;;;;32.55;30.75;;;;;;;16.94;61.75;101108.84;5046263;28;20029;-77
2022/09/16 10:00:12;;;;;;;30.98;29.48;;;;;;;16.93;61.35;101104.47;5033124;28;20443;-77
2022/09/16 10:02:39;;;;;;;29.90;28.42;;;;;;;16.94;61.67;101108.03;5014473;28;20072;-76
2022/09/16 10:05:13;;;;;;;29.63;27.95;;;;;;;16.94;61.83;101100.66;5014388;28;20117;-76
2022/09/16 10:07:39;;;;;;;31.70;30.10;;;;;;;16.96;61.59;101101.22;5030945;28;20064;-76
2022/09/16 10:10:19;;;;;;;32.20;30.60;;;;;;;16.99;61.25;101091.66;5035334;28;20057;-76
2022/09/16 10:12:44;;;;;;;30.17;28.67;;;;;;;17.01;61.47;101092.16;5032524;28;20034;-77
2022/09/16 10:15:29;;;;;;;32.53;30.65;;;;;;;17.02;61.86;101100.09;5031972;28;20036;-77
2022/09/16 10:17:58;;;;;;;31.50;29.88;;;;;;;17.03;61.76;101100.91;5035596;28;20037;-76
2022/09/16 10:20:23;;;;;;;32.17;30.52;;;;;;;17.06;61.86;101103.09;5013692;28;20113;-75
2022/09/16 10:23:08;;;;;;;31.33;29.50;;;;;;;17.08;61.80;101099.00;5024415;28;20124;-76
2022/09/16 10:25:34;;;;;;;29.85;28.45;;;;;;;17.09;61.62;101100.63;5034167;28;20117;-76
2022/09/16 10:28:03;;;;;;;31.65;29.95;;;;;;;17.12;61.83;101109.34;5014706;28;20114;-76
2022/09/16 10:30:40;;;;;;;30.67;29.17;;;;;;;17.13;61.76;101114.50;5026726;28;20130;-76
2022/09/16 10:33:13;;;;;;;31.15;29.35;;;;;;;17.14;61.87;101113.44;5023784;28;20405;-77
2022/09/16 10:35:41;;;;;;;32.80;31.10;;;;;;;17.16;61.42;101121.34;5022569;28;20034;-76
2022/09/16 10:38:10;;;;;;;31.88;30.20;;;;;;;17.16;61.86;101113.13;5013847;28;20042;-77
2022/09/16 10:40:35;;;;;;;30.25;28.65;;;;;;;17.18;61.75;101100.84;5024832;28;20033;-77
2022/09/16 10:43:12;;;;;;;31.52;29.95;;;;;;;17.19;61.81;101098.97;4996498;28;20049;-76
2022/09/16 10:45:45;;;;;;;32.78;30.98;;;;;;;17.19;61.70;101099.78;5018034;28;20088;-76
2022/09/16 10:48:14;;;;;;;33.05;30.98;;;;;;;17.21;61.77;101102.22;5013542;28;20081;-77
2022/09/16 10:51:01;;;;;;;31.42;29.92;;;;;;;17.22;61.60;101103.84;5025774;28;20026;-77
2022/09/16 10:53:36;;;;;;;32.80;31.10;;;;;;;17.23;61.95;101102.75;5034900;28;20058;-77
2022/09/16 10:56:05;;;;;;;32.00;30.05;;;;;;;17.24;61.81;101094.28;5025437;28;20041;-77
2022/09/16 10:58:31;;;;;;;33.50;31.40;;;;;;;17.25;61.74;101093.19;5025530;28;20063;-78
2022/09/16 11:01:05;;;;;;;31.85;30.25;;;;;;;17.26;61.54;101094.84;5050606;28;20033;-77
2022/09/16 11:04:07;;;;;;;32.33;30.52;;;;;;;17.27;61.49;101099.19;5030267;28;20513;-77
2022/09/16 11:06:44;;;;;;;31.88;29.92;;;;;;;17.27;61.34;101101.91;5013072;28;20045;-77
2022/09/16 11:09:19;;;;;;;31.70;30.15;;;;;;;17.27;61.32;101085.53;5014665;28;20060;-76
2022/09/16 11:12:15;;;;;;;32.25;30.25;;;;;;;17.29;61.66;101086.09;5016788;28;20041;-78
2022/09/16 11:15:26;;;;;;;33.58;31.65;;;;;;;17.28;61.54;101095.34;5034430;28;20038;-77
2022/09/16 11:18:16;;;;;;;32.25;30.65;;;;;;;17.30;61.55;101089.63;5017655;28;20053;-77
2022/09/16 11:20:59;;;;;;;31.20;29.70;;;;;;;17.32;61.06;101094.81;5024852;28;20030;-77
2022/09/16 11:23:38;;;;;;;33.30;31.35;;;;;;;17.32;61.50;101100.28;5029392;28;20040;-77
2022/09/16 11:26:12;;;;;;;32.92;30.95;;;;;;;17.33;61.42;101094.50;5013119;28;20038;-77
2022/09/16 11:29:02;;;;;;;32.17;30.15;;;;;;;17.34;61.29;101104.38;5013115;28;20062;-77
2022/09/16 11:31:30;;;;;;;33.65;31.63;;;;;;;17.35;61.43;101116.91;5026064;28;20034;-78
2022/09/16 11:34:31;;;;;;;32.67;31.08;;;;;;;17.36;61.27;101118.56;5011474;28;20470;-78